Tiempo atmosférico en la estación meteorológica de Almería Aeropuerto, Almería (21 m.)



Fecha
DESCASC
Temp. máxima en grados centígrados (hora)
DESCASC
Temp. mínima en grados centígrados (hora)
DESCASC
Temp. media en grados centígrados
DESCASC
Racha de viento máxima en m/sg (hora)
DESCASC
Velocidad máxima media en intervalos de 10 minutos(hora)
DESCASC
Precipitaciones diarias en mm
DESCASC
Precipitaciones de 00:00 a 06:00 en mm
DESCASC
Precipitaciones de 06:00 a 12:00 en mm
DESCASC
Precipitaciones de 12:00 a 18:00 en mm
DESCASC
Precipitaciones de 18:00 a 24:00 en mm
DESCASC
16-01-2020 16.8 (14:50) 7.4 (05:50) 12.1 9.72 (04:30) 6.67 (04:50) 0 0 0 0 0
15-01-2020 16.9 (13:30) 7.6 (06:50) 12.2 8.89 (04:40) 6.67 (04:40) 0 0 0 0 0
14-01-2020 16.7 (15:30) 5.6 (06:00) 11.2 12.5 (16:50) 9.17 (17:20) 0 0 0 0 0
13-01-2020 15.9 (14:30) 6.4 (08:20) 11.1 8.89 (02:20) 6.11 (02:00) 0 0 0 0 0
12-01-2020 16.1 (14:50) 6.6 (00:00) 11.4 8.89 (03:00) 6.67 (08:50) 0 0 0 0 0
11-01-2020 18.4 (14:40) 9.4 (00:00) 13.9 12.78 (11:40) 8.89 (15:20) 0 0 0 0 0
10-01-2020 17.5 (16:30) 7.8 (00:00) 12.7 8.89 (16:40) 6.11 (16:40) 0 0 0 0 0
09-01-2020 17.2 (13:00) 8.6 (00:00) 12.9 9.72 (03:40) 6.39 (10:00) 0 0 0 0 0
08-01-2020 16.2 (14:40) 6.1 (00:00) 11.2 6.11 (23:59) 4.44 (20:10) 0 0 0 0 0
07-01-2020 16.1 (14:50) 5.9 (00:00) 11 7.22 (06:50) 5.28 (07:00) 0 0 0 0 0
06-01-2020 16.7 (12:30) 7.2 (00:00) 12 7.78 (09:10) 5.56 (09:10) 0 0 0 0 0
05-01-2020 17.1 (14:40) 7.6 (00:00) 12.4 10.28 (04:40) 7.22 (04:40) 0 0 0 0 0
04-01-2020 15.2 (14:00) 8.5 (00:00) 11.8 9.72 (09:10) 6.94 (09:50) 0 0 0 0 0
03-01-2020 16.4 (15:10) 8.9 (00:00) 12.6 8.33 (01:10) 5.56 (15:20) 0 0 0 0 0
02-01-2020 15.4 (14:50) 9.1 (00:00) 12.3 8.89 (05:50) 6.39 (05:40) 0 0 0 0 0
01-01-2020 16.4 (12:30) 7.9 (00:00) 12.1 8.33 (04:00) 6.11 (04:10) 0 0 0 0 0
31-12-2019 17.3 (15:20) 8.2 (00:00) 12.7 9.72 (09:00) 7.22 (09:30) 0 0 0 0 0
30-12-2019 16.9 (15:50) 9.6 (00:00) 13.3 10.28 (09:50) 6.39 (09:50) 0 0 0 0 0
29-12-2019 18.4 (14:40) 8.8 (00:00) 13.6 10.83 (08:10) 6.94 (08:20) 0 0 0 0 0
28-12-2019 20 (13:40) 7.9 (00:00) 14 7.78 (17:40) 5.28 (17:40) 0 0 0 0 0
27-12-2019 20.4 (14:30) 11.1 (00:00) 15.8 8.33 (00:50) 6.39 (02:50) 0 0 0 0 0
26-12-2019 18.4 (23:40) 7 (00:00) 12.7 8.89 (23:30) 6.11 (23:30) 0 0 0 0 0
25-12-2019 23.6 (12:40) 9.9 (00:00) 16.8 -- (--) -- (--) 0 0 0 0 0
24-12-2019 24.7 (15:00) 9.8 (00:00) 17.3 10.83 (00:50) 7.78 (01:10) 0 0 0 0 0
23-12-2019 20.2 (11:00) 10 (00:00) 15.1 9.17 (23:30) 6.94 (23:20) 0 0 0 0 0
22-12-2019 20.9 (12:50) 12.1 (00:00) 16.5 13.33 (00:10) 10 (00:10) 0 0 0 0 0
21-12-2019 20.1 (13:50) 16.7 (00:00) 18.4 26.67 (05:40) 18.61 (15:40) 0 0 0 0 0
20-12-2019 17.8 (12:50) 14.9 (00:00) 16.3 28.33 (20:30) 19.44 (20:30) 6.5 0.9 3.9 1.7 0
19-12-2019 17.6 (15:10) 7.9 (02:40) 12.8 13.89 (15:20) 10.56 (15:20) 0 0 0 0 0

Gráficas

Temp. máximas Temp. mínimas Temp. medias Precipitaciones Rachas de viento máximas Velocidades máximas media en intervalos de 10 minutos

Datos horarios

Fecha y hora oficial Temperatura (ºC) Velocidad del viento (km/h) Dirección del viento Racha (km/h) Dirección de racha Precipitación (mm) Presión (hPa) Tendencia (hPa) Humedad (%)
2020-01-17 23:00:00 11.4 8 Norte 21 Oeste 0 1029.1 0.5 72
2020-01-17 22:00:00 12.1 5 Sur 15 Norte 0 1028.9 1 71
2020-01-17 21:00:00 11.3 7 Norte 15 Norte 0 1028.6 1.2 80
2020-01-17 20:00:00 11.6 9 Norte 13 Norte 0 1028.6 1.5 75
2020-01-17 19:00:00 12.9 7 Norte 9 Norte 0 1027.9 0.8 78
2020-01-17 18:00:00 15.1 3 Sudeste 11 Sur 0 1027.4 0.2 70
2020-01-17 17:00:00 16.4 9 Sur 13 Sur 0 1027.1 -0.7 70
2020-01-17 16:00:00 16.9 8 Sudeste 13 Sudeste 0 1027.1 -1.4 70
2020-01-17 15:00:00 17.6 5 Sur 11 Sur 0 1027.2 -2.3 68
2020-01-17 14:00:00 17.7 6 Sur 13 Sur 0 1027.8 -1.4 69
2020-01-17 13:00:00 17.8 4 Sur 13 Sudoeste 0 1028.5 0 72
2020-01-17 12:00:00 17 3 Sur 9 Sur 0 1029.5 1.4 67
2020-01-17 11:00:00 14.9 0 Calma 8 Sudoeste 0 1029.2 1.3 59
2020-01-17 10:00:00 12.2 2 Nordeste 8 Oeste 0 1028.5 1.1 62
2020-01-17 09:00:00 9.4 0 Calma 17 Noroeste 0 1028.1 1.2 68
2020-01-17 08:00:00 9.3 12 Noroeste 22 Noroeste 0 1027.9 1 66
2020-01-17 07:00:00 8.3 14 Noroeste 18 Noroeste 0 1027.4 0.2 67
2020-01-17 06:00:00 8.7 10 Norte 18 Noroeste 0 1026.9 -0.5 67
2020-01-17 05:00:00 9.1 15 Noroeste 21 Noroeste 0 1026.9 -0.2 65
2020-01-17 04:00:00 9.3 13 Noroeste 21 Noroeste 0 1027.2 0.1 66
2020-01-17 03:00:00 9.4 14 Noroeste 22 Noroeste 0 1027.4 0.1 70
2020-01-17 02:00:00 9.8 18 Noroeste 24 Noroeste 0 1027.1 -0.1 73
2020-01-17 01:00:00 10 17 Noroeste 24 Noroeste 0 1027.1 0.4 79
2020-01-17 00:00:00 10.2 13 Noroeste 18 Noroeste 0 1027.3 0.8 84
2020-01-16 23:00:00 9.8 6 Noroeste 15 Noroeste 0 1027.2 0.8 94
2020-01-16 22:00:00 9.8 9 Noroeste 11 Noroeste 0 1026.7 0.9 95
2020-01-16 21:00:00 10.8 4 Oeste 11 Norte 0 1026.5 1.3 94
2020-01-16 20:00:00 11.5 2 Norte 5 Norte 0 1026.4 1.3 90
2020-01-16 19:00:00 12.9 0 Calma 8 Sudoeste 0 1025.8 0.9 88
2020-01-16 18:00:00 15.3 4 Sur 13 Sudoeste 0 1025.2 0.1 79
2020-01-16 17:00:00 16 9 Sudoeste 13 Sudoeste 0 1025.1 -0.6 74
2020-01-16 16:00:00 16.5 9 Sur 15 Sur 0 1024.9 -1.5 69
2020-01-16 15:00:00 16.6 11 Sur 17 Sur 0 1025.1 -1.9 68
2020-01-16 14:00:00 16.1 10 Sudoeste 15 Sur 0 1025.7 -1.4 71
2020-01-16 13:00:00 16 10 Sur 13 Sur 0 1026.4 -0.2 66
2020-01-16 12:00:00 16.2 9 Sur 11 Sur 0 1027 1 64
2020-01-16 11:00:00 14.6 6 Noroeste 17 Noroeste 0 1027.1 1.5 41
2020-01-16 10:00:00 11.9 14 Noroeste 21 Noroeste 0 1026.6 1.2 47
2020-01-16 09:00:00 9.5 13 Norte 30 Norte 0 1026 0.7 55
2020-01-16 08:00:00 9.3 17 Norte 28 Noroeste 0 1025.6 0.2 55
2020-01-16 07:00:00 9.7 18 Noroeste 26 Noroeste 0 1025.4 -0.1 54
2020-01-16 06:00:00 8.6 11 Norte 24 Norte 0 1025.3 -0.2 69
2020-01-16 05:00:00 10.3 20 Noroeste 35 Norte 0 1025.4 -0.1 54
2020-01-16 04:00:00 8.9 17 Norte 26 Norte 0 1025.5 -0.3 63
2020-01-16 03:00:00 9.2 18 Norte 24 Norte 0 1025.5 -0.5 64
2020-01-16 02:00:00 9.3 19 Norte 26 Norte 0 1025.5 -0.6 67
2020-01-16 01:00:00 10.3 15 Noroeste 26 Noroeste 0 1025.8 0 65
2020-01-16 00:00:00 10.6 14 Norte 22 Norte 0 1026 0.2 67
2020-01-15 23:00:00 9.6 11 Noroeste 17 Noroeste 0 1026.1 0.3 78
2020-01-15 22:00:00 9.6 2 Noroeste 15 Noroeste 0 1025.8 0.3 86
2020-01-15 21:00:00 10.3 10 Norte 15 Noroeste 0 1025.8 0.7 89
2020-01-15 20:00:00 10.8 9 Norte 11 Norte 0 1025.8 1.1 89
2020-01-15 19:00:00 12.7 0 Calma 4 Sudeste 0 1025.5 1.3 83
2020-01-15 18:00:00 15.4 3 Sudeste 9 Sudeste 0 1025.1 0.9 74
2020-01-15 17:00:00 16.5 6 Sur 11 Sur 0 1024.7 0.2 69
2020-01-15 16:00:00 16.6 7 Sur 13 Sur 0 1024.2 -0.6 66
2020-01-15 15:00:00 16.4 9 Sur 15 Sur 0 1024.2 -1.2 66
2020-01-15 14:00:00 16.6 10 Sur 13 Sur 0 1024.5 -0.7 64
2020-01-15 13:00:00 16.3 8 Sur 11 Sur 0 1024.8 0.5 60
2020-01-15 12:00:00 15.3 4 Sudoeste 17 Noroeste 0 1025.4 1.8 49
2020-01-15 11:00:00 13 13 Noroeste 22 Noroeste 0 1025.2 2.4 52
2020-01-15 10:00:00 11.9 8 Norte 18 Noroeste 0 1024.3 2.1 58
2020-01-15 09:00:00 9 12 Noroeste 21 Norte 0 1023.6 2.3 69
2020-01-15 08:00:00 8.2 10 Norte 18 Norte 0 1022.8 1.7 75
2020-01-15 07:00:00 7.7 13 Noroeste 17 Norte 0 1022.2 1 74
2020-01-15 06:00:00 8.3 11 Norte 21 Noroeste 0 1021.3 0 66
2020-01-15 05:00:00 9.8 15 Noroeste 32 Norte 0 1021.1 -0.1 58
2020-01-15 04:00:00 9.2 14 Norte 30 Noroeste 0 1021.2 -0.3 66
2020-01-15 03:00:00 9.4 21 Noroeste 30 Noroeste 0 1021.3 -0.2 68
2020-01-15 02:00:00 9.9 18 Noroeste 26 Noroeste 0 1021.2 -0.2 71
2020-01-15 01:00:00 9.9 13 Noroeste 18 Noroeste 0 1021.5 0.4 81
2020-01-15 00:00:00 9.3 13 Norte 18 Noroeste 0 1021.5 0.7 85
2020-01-14 23:00:00 9.1 10 Noroeste 13 Noroeste 0 1021.4 0.7 89
2020-01-14 22:00:00 9.7 8 Norte 15 Noroeste 0 1021.1 0.9 87
2020-01-14 21:00:00 12.5 12 Sudoeste 22 Oeste 0 1020.8 1.1 81
2020-01-14 20:00:00 13 17 Oeste 33 Sudoeste 0 1020.7 1.3 77
2020-01-14 19:00:00 14 27 Sudoeste 41 Sudoeste 0 1020.2 0.7 75
2020-01-14 18:00:00 14.7 27 Sudoeste 42 Sudoeste 0 1019.7 0.1 74
2020-01-14 17:00:00 15.2 31 Sudoeste 45 Sudoeste 0 1019.4 -0.8 70
2020-01-14 16:00:00 16.1 28 Sudoeste 39 Sudoeste 0 1019.5 -1.7 69
2020-01-14 15:00:00 15.7 28 Sudoeste 39 Sudoeste 0 1019.6 -2.3 61
2020-01-14 14:00:00 15.6 15 Sur 22 Sur 0 1020.2 -2.1 70
2020-01-14 13:00:00 15.4 10 Sur 13 Sur 0 1021.2 -0.7 63
2020-01-14 12:00:00 14.8 6 Sur 11 Sur 0 1021.9 0.4 67
2020-01-14 11:00:00 12.9 2 Norte 21 Norte 0 1022.3 1.1 66
2020-01-14 10:00:00 9.3 12 Norte 21 Noroeste 0 1021.9 1.2 67
2020-01-14 09:00:00 8 16 Noroeste 24 Noroeste 0 1021.5 1.3 69
2020-01-14 08:00:00 6.6 10 Norte 15 Norte 0 1021.2 1.1 82
2020-01-14 07:00:00 6.5 3 Noroeste 15 Norte 0 1020.7 0.6 75
2020-01-14 06:00:00 5.7 5 Norte 21 Norte 0 1020.2 -0.2 81
2020-01-14 05:00:00 8.2 14 Norte 26 Noroeste 0 1020.1 -0.6 68
2020-01-14 04:00:00 7.8 15 Noroeste 22 Noroeste 0 1020.1 -1 83
2020-01-14 03:00:00 8.2 13 Noroeste 21 Noroeste 0 1020.4 -1.2 83
2020-01-14 02:00:00 8.3 15 Noroeste 24 Noroeste 0 1020.7 -1.2 84
2020-01-14 01:00:00 8.4 17 Noroeste 22 Noroeste 0 1021.1 -0.9 84
2020-01-14 00:00:00 7.9 11 Noroeste 17 Noroeste 0 1021.6 -0.8 90
2020-01-13 23:00:00 8.4 4 Norte 13 Noroeste 0 1021.9 -0.6 89
2020-01-13 22:00:00 9.4 9 Noroeste 15 Oeste 0 1022 -0.4 87
2020-01-13 21:00:00 11.5 13 Oeste 22 Sudoeste 0 1022.4 0 82
2020-01-13 20:00:00 12.3 14 Sudoeste 24 Sudoeste 0 1022.5 0 78
2020-01-13 19:00:00 13.1 18 Sudoeste 26 Sudoeste 0 1022.4 -0.3 72
2020-01-13 18:00:00 13.9 14 Sudoeste 22 Sur 0 1022.4 -0.4 72
2020-01-13 17:00:00 15.3 15 Sudoeste 22 Sudoeste 0 1022.5 -1.2 67
2020-01-13 16:00:00 15.6 14 Sur 22 Sudoeste 0 1022.7 -2.1 68
2020-01-13 15:00:00 15.3 15 Sur 21 Sur 0 1022.8 -3.1 68
2020-01-13 14:00:00 15.2 9 Sur 15 Sur 0 1023.7 -2.5 67
2020-01-13 13:00:00 15.4 6 Sur 13 Sur 0 1024.8 -1.2 66
2020-01-13 12:00:00 14.8 5 Sur 9 Sur 0 1025.9 -0.1 64
2020-01-13 11:00:00 13.9 3 Este 17 Norte 0 1026.2 0.6 61
2020-01-13 10:00:00 10 10 Norte 22 Noroeste 0 1026 0.7 63
2020-01-13 09:00:00 7.6 10 Norte 22 Noroeste 0 1026 0.8 70
2020-01-13 08:00:00 7.5 19 Noroeste 28 Noroeste 0 1025.6 0 64
2020-01-13 07:00:00 7.2 18 Noroeste 28 Noroeste 0 1025.3 -0.9 68
2020-01-13 06:00:00 7.6 18 Noroeste 24 Noroeste 0 1025.2 -1.2 67
2020-01-13 05:00:00 7.4 15 Norte 24 Norte 0 1025.6 -1 72
2020-01-13 04:00:00 7.9 16 Noroeste 22 Noroeste 0 1026.2 -1.2 74
2020-01-13 03:00:00 7.8 17 Norte 32 Noroeste 0 1026.4 -1.4 78
2020-01-13 02:00:00 8.4 22 Noroeste 30 Noroeste 0 1026.6 -1.4 79
2020-01-13 01:00:00 8.9 16 Noroeste 30 Noroeste 0 1027.4 -0.2 82
2020-01-13 00:00:00 9.3 15 Norte 21 Norte 0 1027.8 0.5 84
2020-01-12 23:00:00 9.2 12 Norte 15 Norte 0 1028 0.8 89
2020-01-12 22:00:00 10.4 12 Noroeste 21 Noroeste 0 1027.6 0.8 88
2020-01-12 21:00:00 9.9 8 Noroeste 11 Noroeste 0 1027.3 -- 89
2020-01-12 20:00:00 10.9 5 Noroeste 15 Sudoeste 0 1027.2 1.1 85
2020-01-12 19:00:00 13.3 11 Sudoeste 21 Sudoeste 0 1026.8 0.6 78
2020-01-12 18:00:00 -- -- -- 22 Sudoeste 0 -- -- --
2020-01-12 17:00:00 15.4 16 Sur 22 Sur 0 1026.1 -0.5 72
2020-01-12 16:00:00 15.9 16 Sur 22 Sur 0 1026.2 -1.4 69
2020-01-12 15:00:00 15.9 18 Sudoeste 22 Sur 0 1026.2 -2.3 67
2020-01-12 14:00:00 15.8 14 Sur 18 Sur 0 1026.6 -2.3 64
2020-01-12 13:00:00 15.3 10 Sur 15 Sudoeste 0 1027.6 -1 62
2020-01-12 12:00:00 15.2 11 Sudoeste 15 Sur 0 1028.5 0.2 57
2020-01-12 11:00:00 13 14 Noroeste 24 Noroeste 0 1028.9 0.8 46
2020-01-12 10:00:00 10.2 19 Noroeste 32 Noroeste 0 1028.6 0.6 54
2020-01-12 09:00:00 7.7 22 Noroeste 32 Noroeste 0 1028.3 0.4 62
2020-01-12 08:00:00 6.8 9 Norte 21 Norte 0 1028.1 0 78
2020-01-12 07:00:00 7.6 9 Norte 24 Noroeste 0 1028 -0.6 70
2020-01-12 06:00:00 8.7 18 Noroeste 30 Noroeste 0 1027.9 -0.6 65
2020-01-12 05:00:00 8.2 17 Noroeste 30 Noroeste 0 1028.1 -0.2 68
2020-01-12 04:00:00 8.3 22 Noroeste 30 Noroeste 0 1028.6 0 67
2020-01-12 03:00:00 8.9 22 Noroeste 32 Noroeste 0 1028.5 -0.5 66
2020-01-12 02:00:00 9.2 19 Noroeste 28 Noroeste 0 1028.3 -0.6 69
2020-01-12 01:00:00 9.6 16 Noroeste 26 Noroeste 0 1028.6 0 68
2020-01-12 00:00:00 9.8 13 Norte 22 Noroeste 0 1029 0.8 71
2020-01-11 23:00:00 11.6 13 Norte 26 Nordeste 0 1028.9 1 62
2020-01-11 22:00:00 10.8 13 Norte 18 Noroeste 0 1028.6 1.4 65
2020-01-11 21:00:00 10.6 4 Norte 18 Nordeste 0 1028.2 1.7 70
2020-01-11 20:00:00 11.7 13 Nordeste 22 Nordeste 0 1027.9 1.8 68
2020-01-11 19:00:00 12.1 15 Nordeste 24 Este 0 1027.2 1.4 63
2020-01-11 18:00:00 14.9 20 Este 33 Este 0 1026.5 0.8 49
2020-01-11 17:00:00 16.8 25 Este 39 Este 0 1026.1 0 42
2020-01-11 16:00:00 17.4 30 Este 41 Este 0 1025.8 -1.2 40
2020-01-11 15:00:00 18 31 Este 45 Este 0 1025.7 -2.2 39
2020-01-11 14:00:00 18 28 Este 45 Este 0 1026.1 -1.6 39
2020-01-11 13:00:00 17.7 30 Este 45 Nordeste 0 1027 0.1 40
2020-01-11 12:00:00 17.4 29 Nordeste 46 Nordeste 0 1027.9 1.9 42
2020-01-11 11:00:00 15.4 23 Nordeste 35 Nordeste 0 1027.7 2 52
2020-01-11 10:00:00 15.6 23 Norte 39 Nordeste 0 1026.9 1.8 50
2020-01-11 09:00:00 14 18 Norte 26 Norte 0 1026 1.4 53
2020-01-11 08:00:00 13.5 13 Norte 26 Norte 0 1025.7 0.9 54
2020-01-11 07:00:00 12.8 9 Nordeste 22 Oeste 0 1025.1 0.1 57
2020-01-11 06:00:00 12.9 17 Norte 33 Norte 0 1024.6 -0.1 56
2020-01-11 05:00:00 13.5 22 Norte 33 Norte 0 1024.8 0.4 52
2020-01-11 04:00:00 13.7 16 Norte 32 Norte 0 1025 0.3 51
2020-01-11 03:00:00 13.8 14 Norte 26 Norte 0 1024.7 -0.4 47
2020-01-11 02:00:00 13.7 13 Norte 22 Norte 0 1024.4 -0.2 46
2020-01-11 01:00:00 10.2 8 Noroeste 18 Noroeste 0 1024.7 0.6 67
2020-01-11 00:00:00 10.6 12 Norte 24 Nordeste 0 1025.1 1.4 61
2020-01-10 23:00:00 9.6 9 Nordeste 24 Noroeste 0 1024.6 1.4 75
2020-01-10 22:00:00 10.3 10 Noroeste 17 Noroeste 0 1024.1 1.5 82
2020-01-10 21:00:00 11.8 10 Norte 17 Nordeste 0 1023.7 2.1 80
2020-01-10 20:00:00 13.4 9 Nordeste 15 Nordeste 0 1023.2 2.4 75
2020-01-10 19:00:00 13.5 6 Este 21 Este 0 1022.6 2 69
2020-01-10 18:00:00 14.9 12 Este 32 Este 0 1021.6 1.5 62
2020-01-10 17:00:00 16.1 22 Este 32 Este 0 1020.8 0.6 59
2020-01-10 16:00:00 16.3 12 Sudeste 17 Sudeste 0 1020.6 -0.3 74
2020-01-10 15:00:00 16.8 8 Sur 13 Sudeste 0 1020.1 -1.7 70
2020-01-10 14:00:00 16.6 9 Sur 13 Sur 0 1020.2 -2.2 68
2020-01-10 13:00:00 16.5 8 Sur 18 Sudoeste 0 1020.9 -1.2 68
2020-01-10 12:00:00 15.8 14 Sudoeste 18 Sur 0 1021.8 0.3 69
2020-01-10 11:00:00 13.9 9 Oeste 24 Noroeste 0 1022.4 0.5 63
2020-01-10 10:00:00 10.4 19 Noroeste 28 Noroeste 0 1022.1 -0.3 74
2020-01-10 09:00:00 9.1 16 Noroeste 28 Noroeste 0 1021.5 -0.5 81
2020-01-10 08:00:00 8.4 22 Noroeste 30 Noroeste 0 1021.9 -0.1 85
2020-01-10 07:00:00 8.8 11 Noroeste 22 Noroeste 0 1022.4 0.3 88
2020-01-10 06:00:00 7.9 9 Noroeste 13 Norte 0 1022 -0.4 92
2020-01-10 05:00:00 8.5 9 Norte 21 Noroeste 0 1022 -0.7 90
2020-01-10 04:00:00 9.4 14 Noroeste 18 Noroeste 0 1022.1 -1 88
2020-01-10 03:00:00 9.4 11 Noroeste 15 Norte 0 1022.4 -0.9 90
2020-01-10 02:00:00 9.7 12 Noroeste 15 Norte 0 1022.7 -1.4 90
2020-01-10 01:00:00 9.5 6 Norte 11 Norte 0 1023.1 -1.3 90
2020-01-10 00:00:00 9.9 7 Norte 11 Norte 0 1023.3 -1.5 89
2020-01-09 23:00:00 10.6 5 Noroeste 8 Noroeste 0 1024.1 -0.5 87
2020-01-09 22:00:00 12.7 0 Calma 9 Norte 0 1024.4 0.3 82
2020-01-09 21:00:00 12.5 3 Noroeste 8 Noroeste 0 1024.8 0.8 82
2020-01-09 20:00:00 12.5 5 Oeste 11 Oeste 0 1024.6 0.6 82
2020-01-09 19:00:00 13.4 9 Sudoeste 13 Sudoeste 0 1024.1 0.3 77
2020-01-09 18:00:00 13.9 9 Sudoeste 15 Sur 0 1024 0.1 73
2020-01-09 17:00:00 15.7 12 Sur 18 Sur 0 1024 -0.4 67
2020-01-09 16:00:00 16.5 13 Sur 18 Sur 0 1023.8 -1.5 64
2020-01-09 15:00:00 16.8 12 Sur 15 Sudoeste 0 1023.9 -2.6 62
2020-01-09 14:00:00 16.8 9 Sur 15 Sur 0 1024.4 -2.6 58
2020-01-09 13:00:00 17 6 Sur 15 Noroeste 0 1025.3 -1.3 55
2020-01-09 12:00:00 15.7 9 Noroeste 24 Noroeste 0 1026.5 0.3 56
2020-01-09 11:00:00 13.2 18 Noroeste 32 Noroeste 0 1027 1 60
2020-01-09 10:00:00 10.4 23 Noroeste 32 Noroeste 0 1026.6 0.5 68
2020-01-09 09:00:00 9.3 18 Noroeste 30 Norte 0 1026.2 0.3 72
2020-01-09 08:00:00 8.9 21 Noroeste 30 Norte 0 1026 0 74
2020-01-09 07:00:00 9.8 19 Noroeste 32 Noroeste 0 1026.1 -0.2 73
2020-01-09 06:00:00 9.6 21 Noroeste 30 Norte 0 1025.9 -0.8 75
2020-01-09 05:00:00 9.6 21 Noroeste 30 Norte 0 1026 -0.8 79
2020-01-09 04:00:00 10.1 22 Noroeste 35 Norte 0 1026.3 -0.8 79
2020-01-09 03:00:00 9.6 17 Norte 28 Noroeste 0 1026.7 -0.8 82
2020-01-09 02:00:00 9.8 17 Noroeste 24 Noroeste 0 1026.8 -0.8 81
2020-01-09 01:00:00 9.5 10 Norte 22 Norte 0 1027.1 -0.4 84
2020-01-09 00:00:00 9.7 15 Norte 22 Noroeste 0 1027.5 0.4 86
2020-01-08 23:00:00 10.2 10 Nordeste 17 Nordeste 0 1027.6 0.4 87
2020-01-08 22:00:00 10.1 6 Nordeste 17 Nordeste 0 1027.5 0.8 85
2020-01-08 21:00:00 10.2 11 Nordeste 18 Este 0 1027.1 0.8 89
2020-01-08 20:00:00 11.1 14 Nordeste 18 Nordeste 0 1027.2 1.1 87
2020-01-08 19:00:00 11.7 8 Norte 11 Norte 0 1026.7 0.8 87
2020-01-08 18:00:00 14 2 Sudoeste 9 Sudeste 0 1026.3 0.4 79
2020-01-08 17:00:00 15.2 6 Sur 11 Sudoeste 0 1026.1 0.1 75
2020-01-08 16:00:00 15.9 9 Sur 13 Sudoeste 0 1025.9 -0.4 73
2020-01-08 15:00:00 15.8 10 Sur 15 Sur 0 1025.9 -1.1 72
2020-01-08 14:00:00 15.7 10 Sur 17 Sur 0 1026 -1.3 71
2020-01-08 13:00:00 15.2 11 Sudoeste 17 Sudoeste 0 1026.3 -0.8 72
2020-01-08 12:00:00 14.6 6 Sudoeste 15 Oeste 0 1027 0.3 70
2020-01-08 11:00:00 13.1 3 Noroeste 9 Noroeste 0 1027.3 1.2 79
2020-01-08 10:00:00 10.4 8 Norte 9 Norte 0 1027.1 1.3 90
2020-01-08 09:00:00 6.8 6 Noroeste -- -- -- 1026.7 1.1 91
2020-01-08 08:00:00 6.3 5 Nordeste 9 Este 0 1026.1 0.3 87
2020-01-08 07:00:00 7.2 2 Norte 21 Noroeste 0 1025.8 -0.3 85
2020-01-08 06:00:00 7.8 14 Noroeste 21 Noroeste 0 1025.6 -0.7 88
2020-01-08 05:00:00 7.3 9 Norte 13 Norte 0 1025.8 -0.7 93
2020-01-08 04:00:00 6.8 3 Norte 11 Nordeste 0 1026.1 -0.8 95
2020-01-08 03:00:00 8.5 9 Noroeste 17 Noroeste 0 1026.3 -1.2 91
2020-01-08 02:00:00 8.4 14 Noroeste 18 Noroeste 0 1026.5 -1.2 91
2020-01-08 01:00:00 8.3 12 Noroeste 15 Noroeste 0 1026.9 -0.8 95
2020-01-08 00:00:00 8.6 12 Noroeste 15 Noroeste 0 1027.5 -0.3 93
2020-01-07 23:00:00 9.1 12 Norte 15 Noroeste 0 1027.7 -0.1 92
2020-01-07 22:00:00 9.5 12 Noroeste 17 Norte 0 1027.7 0.1 92
2020-01-07 21:00:00 9.4 11 Noroeste 13 Noroeste 0 1027.8 0.3 92
2020-01-07 20:00:00 10.5 7 Noroeste 9 Norte 0 1027.8 0.8 90
2020-01-07 19:00:00 11.6 6 Noroeste 9 Norte 0 1027.6 0.2 87
2020-01-07 18:00:00 14.3 4 Sur 13 Sudoeste 0 1027.5 -0.2 76
2020-01-07 17:00:00 14.8 10 Sudoeste 15 Sudoeste 0 1027 -0.9 75
2020-01-07 16:00:00 15.6 11 Sudoeste 15 Sudoeste 0 1027.4 -1.4 71
2020-01-07 15:00:00 15.8 9 Sur 13 Sur 0 1027.7 -1.9 70
2020-01-07 14:00:00 15.5 9 Sur 13 Sur 0 1027.9 -2.1 68
2020-01-07 13:00:00 15.3 6 Sur 11 Sur 0 1028.8 -0.7 66
2020-01-07 12:00:00 15.3 5 Sudoeste 9 Sudoeste 0 1029.6 0.9 67
2020-01-07 11:00:00 14.1 0 Calma 5 Sur 0 1030 1.6 66
2020-01-07 10:00:00 11.1 2 Nordeste 9 Nordeste 0 1029.5 1.3 72
2020-01-07 09:00:00 7.4 6 Nordeste 22 Norte 0 1028.7 0.6 82
2020-01-07 08:00:00 7.5 14 Norte 26 Noroeste 0 1028.4 0.6 79
2020-01-07 07:00:00 7.6 19 Noroeste 26 Noroeste 0 1028.2 0.4 75
2020-01-07 06:00:00 6.7 9 Noroeste 15 Norte 0 1028.1 0.2 92
2020-01-07 05:00:00 6.9 11 Norte 15 Norte 0 1027.8 0 90
2020-01-07 04:00:00 6 4 Nordeste 17 Norte 0 1027.8 -0.2 93
2020-01-07 03:00:00 7.5 9 Noroeste 22 Noroeste 0 1027.9 -0.4 88
2020-01-07 02:00:00 8.3 16 Noroeste 22 Noroeste 0 1027.8 -0.3 84
2020-01-07 01:00:00 8.6 12 Noroeste 18 Noroeste 0 1028 0.2 86
2020-01-07 00:00:00 8 2 Norte 15 Noroeste 0 1028.3 0.8 89
2020-01-06 23:00:00 9.5 13 Norte 18 Noroeste 0 1028.1 1.1 84
2020-01-06 22:00:00 9.1 13 Noroeste 15 Noroeste 0 1027.8 1.1 87
2020-01-06 21:00:00 9.8 8 Norte 11 Norte 0 1027.5 1.4 85
2020-01-06 20:00:00 10.4 10 Norte 11 Norte 0 1027 1.1 84
2020-01-06 19:00:00 11.7 3 Este 11 Sur 0 1026.7 1 80
2020-01-06 18:00:00 14.2 9 Sudeste 11 Sudeste 0 1026.1 0.3 67
2020-01-06 17:00:00 15.7 7 Sur 15 Sur 0 1025.9 -0.4 62
2020-01-06 16:00:00 16.2 10 Sur 15 Sur 0 1025.7 -1.3 61
2020-01-06 15:00:00 16.3 12 Sur 17 Sur 0 1025.8 -1.9 60
2020-01-06 14:00:00 16.2 12 Sur 17 Sudoeste 0 1026.3 -1.6 60
2020-01-06 13:00:00 16.3 10 Sur 17 Este 0 1027 -0.5 59
2020-01-06 12:00:00 15.6 3 Nordeste 17 Noroeste 0 1027.7 0.7 58
2020-01-06 11:00:00 13.2 13 Noroeste 22 Noroeste 0 1027.9 1.3 61
2020-01-06 10:00:00 10.3 17 Noroeste 28 Noroeste 0 1027.5 1.3 68